sensor_id;sensor_type;location;lat;lon;timestamp;pressure;altitude;pressure_sealevel;temperature;humidity
66945;BME280;53853;51.982;5.928;2022-08-03T00:02:23;101441.25;;;21.91;66.01
66945;BME280;53853;51.982;5.928;2022-08-03T00:04:53;101447.09;;;21.88;65.33
66945;BME280;53853;51.982;5.928;2022-08-03T00:07:23;101443.78;;;21.86;65.36
66945;BME280;53853;51.982;5.928;2022-08-03T00:09:53;101447.53;;;21.85;65.06
66945;BME280;53853;51.982;5.928;2022-08-03T00:12:25;101437.69;;;21.84;64.81
66945;BME280;53853;51.982;5.928;2022-08-03T00:14:55;101438.75;;;21.83;64.81
66945;BME280;53853;51.982;5.928;2022-08-03T00:17:25;101431.66;;;21.82;65.63
66945;BME280;53853;51.982;5.928;2022-08-03T00:19:55;101440.00;;;21.80;66.32
66945;BME280;53853;51.982;5.928;2022-08-03T00:22:25;101436.47;;;21.80;67.11
66945;BME280;53853;51.982;5.928;2022-08-03T00:24:54;101440.88;;;21.81;68.13
66945;BME280;53853;51.982;5.928;2022-08-03T00:27:27;101442.09;;;21.78;68.18
66945;BME280;53853;51.982;5.928;2022-08-03T00:29:57;101437.72;;;21.77;67.55
66945;BME280;53853;51.982;5.928;2022-08-03T00:32:27;101438.13;;;21.74;67.37
66945;BME280;53853;51.982;5.928;2022-08-03T00:34:56;101435.00;;;21.70;67.59
66945;BME280;53853;51.982;5.928;2022-08-03T00:37:26;101436.47;;;21.66;67.19
66945;BME280;53853;51.982;5.928;2022-08-03T00:39:56;101437.72;;;21.64;67.26
66945;BME280;53853;51.982;5.928;2022-08-03T00:42:28;101437.13;;;21.62;68.11
66945;BME280;53853;51.982;5.928;2022-08-03T00:44:58;101433.75;;;21.60;68.38
66945;BME280;53853;51.982;5.928;2022-08-03T00:47:28;101435.03;;;21.57;68.09
66945;BME280;53853;51.982;5.928;2022-08-03T00:49:58;101427.31;;;21.54;67.85
66945;BME280;53853;51.982;5.928;2022-08-03T00:52:28;101424.78;;;21.52;67.45
66945;BME280;53853;51.982;5.928;2022-08-03T00:54:59;101430.44;;;21.51;66.98
66945;BME280;53853;51.982;5.928;2022-08-03T00:57:32;101424.16;;;21.50;67.02
66945;BME280;53853;51.982;5.928;2022-08-03T01:00:03;101427.44;;;21.46;67.57
66945;BME280;53853;51.982;5.928;2022-08-03T01:02:33;101421.00;;;21.40;68.19
66945;BME280;53853;51.982;5.928;2022-08-03T01:05:04;101424.53;;;21.34;68.44
66945;BME280;53853;51.982;5.928;2022-08-03T01:07:45;101416.19;;;21.29;68.83
66945;BME280;53853;51.982;5.928;2022-08-03T01:10:26;101417.22;;;21.21;69.09
66945;BME280;53853;51.982;5.928;2022-08-03T01:13:10;101413.25;;;21.17;69.36
66945;BME280;53853;51.982;5.928;2022-08-03T01:15:49;101412.22;;;21.11;69.51
66945;BME280;53853;51.982;5.928;2022-08-03T01:18:30;101414.94;;;21.11;68.99
66945;BME280;53853;51.982;5.928;2022-08-03T01:21:06;101409.50;;;21.11;68.64
66945;BME280;53853;51.982;5.928;2022-08-03T01:26:47;101407.41;;;21.13;69.80
66945;BME280;53853;51.982;5.928;2022-08-03T01:30:01;101410.13;;;21.13;69.58
66945;BME280;53853;51.982;5.928;2022-08-03T01:32:41;101406.59;;;21.13;70.37
66945;BME280;53853;51.982;5.928;2022-08-03T01:35:14;101403.88;;;21.13;70.81
66945;BME280;53853;51.982;5.928;2022-08-03T01:37:49;101412.22;;;21.11;70.60
66945;BME280;53853;51.982;5.928;2022-08-03T01:40:21;101403.22;;;21.11;70.45
66945;BME280;53853;51.982;5.928;2022-08-03T01:42:53;101403.44;;;21.09;70.45
66945;BME280;53853;51.982;5.928;2022-08-03T01:45:29;101404.06;;;21.05;70.45
66945;BME280;53853;51.982;5.928;2022-08-03T01:48:00;101406.78;;;21.05;70.52
66945;BME280;53853;51.982;5.928;2022-08-03T01:50:31;101395.28;;;21.03;71.21
66945;BME280;53853;51.982;5.928;2022-08-03T01:53:02;101395.28;;;21.03;71.92
66945;BME280;53853;51.982;5.928;2022-08-03T01:55:34;101395.50;;;21.01;71.14
66945;BME280;53853;51.982;5.928;2022-08-03T01:58:06;101399.28;;;21.00;71.01
66945;BME280;53853;51.982;5.928;2022-08-03T02:00:41;101391.75;;;20.95;70.76
66945;BME280;53853;51.982;5.928;2022-08-03T02:03:12;101386.53;;;20.94;70.94
66945;BME280;53853;51.982;5.928;2022-08-03T02:05:45;101386.94;;;20.91;70.97
66945;BME280;53853;51.982;5.928;2022-08-03T02:08:17;101386.53;;;20.87;71.04
66945;BME280;53853;51.982;5.928;2022-08-03T02:10:48;101398.59;;;20.85;71.21
66945;BME280;53853;51.982;5.928;2022-08-03T02:13:20;101399.00;;;20.81;71.32
66945;BME280;53853;51.982;5.928;2022-08-03T02:15:54;101390.66;;;20.76;71.80
66945;BME280;53853;51.982;5.928;2022-08-03T02:18:25;101388.38;;;20.73;71.91
66945;BME280;53853;51.982;5.928;2022-08-03T02:20:56;101393.13;;;20.71;71.65
66945;BME280;53853;51.982;5.928;2022-08-03T02:23:27;101380.66;;;20.70;71.56
66945;BME280;53853;51.982;5.928;2022-08-03T02:26:00;101390.63;;;20.70;71.95
66945;BME280;53853;51.982;5.928;2022-08-03T02:28:33;101386.47;;;20.67;72.06
66945;BME280;53853;51.982;5.928;2022-08-03T02:31:12;101392.09;;;20.66;72.04
66945;BME280;53853;51.982;5.928;2022-08-03T02:33:45;101384.53;;;20.61;72.23
66945;BME280;53853;51.982;5.928;2022-08-03T02:36:21;101390.16;;;20.59;72.27
66945;BME280;53853;51.982;5.928;2022-08-03T02:38:56;101387.66;;;20.58;72.33
66945;BME280;53853;51.982;5.928;2022-08-03T02:41:29;101387.22;;;20.54;72.15
66945;BME280;53853;51.982;5.928;2022-08-03T02:44:01;101382.22;;;20.51;73.96
66945;BME280;53853;51.982;5.928;2022-08-03T02:46:37;101376.59;;;20.46;72.96
66945;BME280;53853;51.982;5.928;2022-08-03T02:49:11;101378.84;;;20.42;72.78
66945;BME280;53853;51.982;5.928;2022-08-03T02:51:41;101373.00;;;20.39;73.71
66945;BME280;53853;51.982;5.928;2022-08-03T02:54:15;101375.47;;;20.34;73.25
66945;BME280;53853;51.982;5.928;2022-08-03T02:56:47;101376.72;;;20.31;73.52
66945;BME280;53853;51.982;5.928;2022-08-03T02:59:18;101373.38;;;20.29;73.78
66945;BME280;53853;51.982;5.928;2022-08-03T03:01:51;101369.19;;;20.26;73.58
66945;BME280;53853;51.982;5.928;2022-08-03T03:04:22;101374.38;;;20.21;75.25
66945;BME280;53853;51.982;5.928;2022-08-03T03:06:52;101371.44;;;20.16;73.85
66945;BME280;53853;51.982;5.928;2022-08-03T03:09:23;101371.44;;;20.16;73.62
66945;BME280;53853;51.982;5.928;2022-08-03T03:11:53;101367.25;;;20.14;74.16
66945;BME280;53853;51.982;5.928;2022-08-03T03:14:23;101365.81;;;20.11;74.53
66945;BME280;53853;51.982;5.928;2022-08-03T03:16:58;101367.66;;;20.11;74.53
66945;BME280;53853;51.982;5.928;2022-08-03T03:19:29;101365.16;;;20.09;74.56
66945;BME280;53853;51.982;5.928;2022-08-03T03:22:00;101368.06;;;20.07;74.65
66945;BME280;53853;51.982;5.928;2022-08-03T03:24:31;101369.31;;;20.05;74.80
66945;BME280;53853;51.982;5.928;2022-08-03T03:27:02;101365.13;;;20.02;75.02
66945;BME280;53853;51.982;5.928;2022-08-03T03:29:32;101359.91;;;20.01;75.08
66945;BME280;53853;51.982;5.928;2022-08-03T03:32:06;101359.91;;;20.01;74.99
66945;BME280;53853;51.982;5.928;2022-08-03T03:34:36;101362.00;;;19.99;75.41
66945;BME280;53853;51.982;5.928;2022-08-03T03:37:06;101354.91;;;19.98;75.07
66945;BME280;53853;51.982;5.928;2022-08-03T03:39:36;101362.00;;;19.99;75.02
66945;BME280;53853;51.982;5.928;2022-08-03T03:42:06;101361.34;;;19.97;74.92
66945;BME280;53853;51.982;5.928;2022-08-03T03:44:36;101361.72;;;19.94;75.23
66945;BME280;53853;51.982;5.928;2022-08-03T03:47:09;101362.78;;;19.93;75.14
66945;BME280;53853;51.982;5.928;2022-08-03T03:49:39;101366.50;;;19.91;75.15
66945;BME280;53853;51.982;5.928;2022-08-03T03:52:10;101358.59;;;19.90;75.67
66945;BME280;53853;51.982;5.928;2022-08-03T03:54:40;101356.94;;;19.89;75.51
66945;BME280;53853;51.982;5.928;2022-08-03T03:57:11;101362.34;;;19.89;75.27
66945;BME280;53853;51.982;5.928;2022-08-03T03:59:41;101369.81;;;19.87;75.29
66945;BME280;53853;51.982;5.928;2022-08-03T04:02:14;101374.41;;;19.86;75.35
66945;BME280;53853;51.982;5.928;2022-08-03T04:04:44;101367.75;;;19.89;75.10
66945;BME280;53853;51.982;5.928;2022-08-03T04:07:40;101371.91;;;19.91;74.89
66945;BME280;53853;51.982;5.928;2022-08-03T04:10:28;101371.28;;;19.89;75.13
66945;BME280;53853;51.982;5.928;2022-08-03T04:13:13;101364.19;;;19.88;75.35
66945;BME280;53853;51.982;5.928;2022-08-03T04:15:45;101366.50;;;19.91;74.63
66945;BME280;53853;51.982;5.928;2022-08-03T04:18:18;101375.06;;;19.95;74.73
66945;BME280;53853;51.982;5.928;2022-08-03T04:20:51;101369.66;;;19.95;75.01
66945;BME280;53853;51.982;5.928;2022-08-03T04:23:24;101371.94;;;19.98;74.50
66945;BME280;53853;51.982;5.928;2022-08-03T04:25:56;101368.84;;;20.01;73.95
66945;BME280;53853;51.982;5.928;2022-08-03T04:28:27;101373.03;;;20.04;74.27
66945;BME280;53853;51.982;5.928;2022-08-03T04:30:59;101369.94;;;20.07;74.60
66945;BME280;53853;51.982;5.928;2022-08-03T04:33:36;101380.34;;;20.10;73.90
66945;BME280;53853;51.982;5.928;2022-08-03T04:36:08;101378.09;;;20.14;73.66
66945;BME280;53853;51.982;5.928;2022-08-03T04:38:42;101374.16;;;20.16;73.81
66945;BME280;53853;51.982;5.928;2022-08-03T04:41:13;101371.88;;;20.20;73.76
66945;BME280;53853;51.982;5.928;2022-08-03T04:43:44;101372.09;;;20.25;73.92
66945;BME280;53853;51.982;5.928;2022-08-03T04:46:15;101370.66;;;20.29;74.98
66945;BME280;53853;51.982;5.928;2022-08-03T04:48:48;101374.81;;;20.32;75.15
66945;BME280;53853;51.982;5.928;2022-08-03T04:51:18;101382.16;;;20.38;75.42
66945;BME280;53853;51.982;5.928;2022-08-03T04:53:48;101371.13;;;20.39;75.79
66945;BME280;53853;51.982;5.928;2022-08-03T04:56:18;101380.50;;;20.43;75.59
66945;BME280;53853;51.982;5.928;2022-08-03T04:58:48;101379.91;;;20.48;75.23
66945;BME280;53853;51.982;5.928;2022-08-03T05:01:18;101389.28;;;20.52;75.02
66945;BME280;53853;51.982;5.928;2022-08-03T05:03:51;101392.25;;;20.57;74.90
66945;BME280;53853;51.982;5.928;2022-08-03T05:06:21;101394.34;;;20.62;74.59
66945;BME280;53853;51.982;5.928;2022-08-03T05:08:51;101389.38;;;20.66;74.59
66945;BME280;53853;51.982;5.928;2022-08-03T05:11:21;101393.56;;;20.68;74.73
66945;BME280;53853;51.982;5.928;2022-08-03T05:13:51;101400.22;;;20.72;74.29
66945;BME280;53853;51.982;5.928;2022-08-03T05:16:21;101392.72;;;20.74;74.13
66945;BME280;53853;51.982;5.928;2022-08-03T05:18:54;101398.19;;;20.81;73.94
66945;BME280;53853;51.982;5.928;2022-08-03T05:21:24;101395.69;;;20.86;73.89
66945;BME280;53853;51.982;5.928;2022-08-03T05:23:53;101398.41;;;20.93;73.67
66945;BME280;53853;51.982;5.928;2022-08-03T05:26:23;101390.69;;;20.96;73.24
66945;BME280;53853;51.982;5.928;2022-08-03T05:28:53;101391.75;;;21.02;72.64
66945;BME280;53853;51.982;5.928;2022-08-03T05:31:23;101399.06;;;21.02;72.82
66945;BME280;53853;51.982;5.928;2022-08-03T05:33:56;101402.41;;;21.04;72.76
66945;BME280;53853;51.982;5.928;2022-08-03T05:36:26;101399.06;;;21.08;72.46
66945;BME280;53853;51.982;5.928;2022-08-03T05:38:56;101403.22;;;21.11;72.29
66945;BME280;53853;51.982;5.928;2022-08-03T05:41:26;101394.06;;;21.12;72.21
66945;BME280;53853;51.982;5.928;2022-08-03T05:43:56;101401.59;;;21.16;72.02
66945;BME280;53853;51.982;5.928;2022-08-03T05:46:26;101399.69;;;21.17;71.90
66945;BME280;53853;51.982;5.928;2022-08-03T05:48:58;101406.78;;;21.18;71.98
66945;BME280;53853;51.982;5.928;2022-08-03T05:51:28;101403.66;;;21.21;71.77
66945;BME280;53853;51.982;5.928;2022-08-03T05:53:58;101405.34;;;21.29;71.17
66945;BME280;53853;51.982;5.928;2022-08-03T05:56:27;101409.09;;;21.34;71.31
66945;BME280;53853;51.982;5.928;2022-08-03T05:58:58;101410.16;;;21.40;70.89
66945;BME280;53853;51.982;5.928;2022-08-03T06:01:28;101404.09;;;21.45;70.86
66945;BME280;53853;51.982;5.928;2022-08-03T06:04:01;101416.47;;;21.54;70.26
66945;BME280;53853;51.982;5.928;2022-08-03T06:06:31;101416.66;;;21.59;70.19
66945;BME280;53853;51.982;5.928;2022-08-03T06:09:01;101419.97;;;21.61;70.09
66945;BME280;53853;51.982;5.928;2022-08-03T06:11:31;101412.47;;;21.63;70.08
66945;BME280;53853;51.982;5.928;2022-08-03T06:14:01;101413.94;;;21.66;69.81
66945;BME280;53853;51.982;5.928;2022-08-03T06:16:31;101416.44;;;21.67;69.45
66945;BME280;53853;51.982;5.928;2022-08-03T06:19:03;101416.63;;;21.73;69.58
66945;BME280;53853;51.982;5.928;2022-08-03T06:21:34;101418.31;;;21.74;69.63
66945;BME280;53853;51.982;5.928;2022-08-03T06:24:04;101417.28;;;21.75;68.89
66945;BME280;53853;51.982;5.928;2022-08-03T06:26:34;101425.00;;;21.78;68.59
66945;BME280;53853;51.982;5.928;2022-08-03T06:29:04;101426.66;;;21.79;69.03
66945;BME280;53853;51.982;5.928;2022-08-03T06:31:34;101427.28;;;21.81;69.12
66945;BME280;53853;51.982;5.928;2022-08-03T06:34:06;101420.78;;;21.88;69.19
66945;BME280;53853;51.982;5.928;2022-08-03T06:36:36;101427.25;;;21.94;69.11
66945;BME280;53853;51.982;5.928;2022-08-03T06:39:06;101433.28;;;22.03;68.68
66945;BME280;53853;51.982;5.928;2022-08-03T06:41:36;101426.81;;;22.11;68.60
66945;BME280;53853;51.982;5.928;2022-08-03T06:44:08;101427.44;;;22.19;67.60
66945;BME280;53853;51.982;5.928;2022-08-03T06:46:38;101423.22;;;22.23;67.15
66945;BME280;53853;51.982;5.928;2022-08-03T06:49:11;101434.50;;;22.27;66.84
66945;BME280;53853;51.982;5.928;2022-08-03T06:51:41;101432.63;;;22.28;66.67
66945;BME280;53853;51.982;5.928;2022-08-03T06:54:11;101435.78;;;22.31;66.51
66945;BME280;53853;51.982;5.928;2022-08-03T06:56:41;101427.41;;;22.33;66.35
66945;BME280;53853;51.982;5.928;2022-08-03T06:59:11;101433.28;;;22.36;66.35
66945;BME280;53853;51.982;5.928;2022-08-03T07:01:41;101432.59;;;22.41;66.04
66945;BME280;53853;51.982;5.928;2022-08-03T07:04:14;101434.69;;;22.46;65.16
66945;BME280;53853;51.982;5.928;2022-08-03T07:06:43;101441.56;;;22.48;65.68
66945;BME280;53853;51.982;5.928;2022-08-03T07:09:13;101427.34;;;22.53;65.29
66945;BME280;53853;51.982;5.928;2022-08-03T07:11:43;101432.34;;;22.56;65.05
66945;BME280;53853;51.982;5.928;2022-08-03T07:14:13;101426.88;;;22.63;65.72
66945;BME280;53853;51.982;5.928;2022-08-03T07:16:43;101433.13;;;22.70;64.67
66945;BME280;53853;51.982;5.928;2022-08-03T07:19:15;101428.09;;;22.73;64.35
66945;BME280;53853;51.982;5.928;2022-08-03T07:21:45;101438.53;;;22.76;64.12
66945;BME280;53853;51.982;5.928;2022-08-03T07:24:15;101433.09;;;22.76;63.95
66945;BME280;53853;51.982;5.928;2022-08-03T07:26:45;101432.50;;;22.74;63.98
66945;BME280;53853;51.982;5.928;2022-08-03T07:29:14;101439.16;;;22.78;63.63
66945;BME280;53853;51.982;5.928;2022-08-03T07:31:44;101438.88;;;22.87;63.47
66945;BME280;53853;51.982;5.928;2022-08-03T07:34:17;101440.31;;;22.96;63.62
66945;BME280;53853;51.982;5.928;2022-08-03T07:36:47;101436.50;;;23.04;63.35
66945;BME280;53853;51.982;5.928;2022-08-03T07:39:17;101435.88;;;23.08;63.22
66945;BME280;53853;51.982;5.928;2022-08-03T07:41:47;101440.00;;;23.18;63.30
66945;BME280;53853;51.982;5.928;2022-08-03T07:44:18;101438.06;;;23.25;62.96
66945;BME280;53853;51.982;5.928;2022-08-03T07:46:48;101436.59;;;23.29;62.79
66945;BME280;53853;51.982;5.928;2022-08-03T07:49:21;101426.47;;;23.36;62.50
66945;BME280;53853;51.982;5.928;2022-08-03T07:51:50;101436.91;;;23.39;62.61
66945;BME280;53853;51.982;5.928;2022-08-03T07:54:32;101443.16;;;23.46;62.50
66945;BME280;53853;51.982;5.928;2022-08-03T07:57:02;101435.16;;;23.51;62.85
66945;BME280;53853;51.982;5.928;2022-08-03T07:59:32;101439.47;;;23.59;62.48
66945;BME280;53853;51.982;5.928;2022-08-03T08:02:06;101436.25;;;23.69;62.00
66945;BME280;53853;51.982;5.928;2022-08-03T08:04:38;101438.69;;;23.77;60.62
66945;BME280;53853;51.982;5.928;2022-08-03T08:07:08;101439.69;;;23.83;60.65
66945;BME280;53853;51.982;5.928;2022-08-03T08:09:38;101440.72;;;23.88;60.84
66945;BME280;53853;51.982;5.928;2022-08-03T08:12:08;101444.44;;;23.94;61.38
66945;BME280;53853;51.982;5.928;2022-08-03T08:14:38;101441.88;;;23.99;61.43
66945;BME280;53853;51.982;5.928;2022-08-03T08:17:11;101435.91;;;24.09;60.90
66945;BME280;53853;51.982;5.928;2022-08-03T08:19:43;101438.81;;;24.14;60.09
66945;BME280;53853;51.982;5.928;2022-08-03T08:22:13;101431.44;;;24.15;60.06
66945;BME280;53853;51.982;5.928;2022-08-03T08:24:43;101438.94;;;24.19;59.78
66945;BME280;53853;51.982;5.928;2022-08-03T08:27:14;101434.72;;;24.23;60.10
66945;BME280;53853;51.982;5.928;2022-08-03T08:29:44;101440.09;;;24.30;59.06
66945;BME280;53853;51.982;5.928;2022-08-03T08:32:14;101447.59;;;24.35;58.63
66945;BME280;53853;51.982;5.928;2022-08-03T08:34:46;101449.00;;;24.37;58.09
66945;BME280;53853;51.982;5.928;2022-08-03T08:37:16;101439.09;;;24.43;58.06
66945;BME280;53853;51.982;5.928;2022-08-03T08:39:46;101450.13;;;24.48;58.21
66945;BME280;53853;51.982;5.928;2022-08-03T08:42:16;101440.22;;;24.54;57.38
66945;BME280;53853;51.982;5.928;2022-08-03T08:44:46;101430.31;;;24.59;56.74
66945;BME280;53853;51.982;5.928;2022-08-03T08:47:18;101443.25;;;24.64;55.90
66945;BME280;53853;51.982;5.928;2022-08-03T08:49:53;101437.34;;;24.67;56.12
66945;BME280;53853;51.982;5.928;2022-08-03T08:52:24;101435.00;;;24.71;55.53
66945;BME280;53853;51.982;5.928;2022-08-03T08:54:57;101436.81;;;24.77;56.34
66945;BME280;53853;51.982;5.928;2022-08-03T08:57:31;101445.16;;;24.82;56.72
66945;BME280;53853;51.982;5.928;2022-08-03T09:00:05;101449.06;;;24.86;55.44
66945;BME280;53853;51.982;5.928;2022-08-03T09:02:35;101453.59;;;24.92;55.51
66945;BME280;53853;51.982;5.928;2022-08-03T09:05:09;101444.72;;;24.97;55.24
66945;BME280;53853;51.982;5.928;2022-08-03T09:07:40;101445.22;;;25.06;55.69
66945;BME280;53853;51.982;5.928;2022-08-03T09:10:11;101444.91;;;25.14;54.84
66945;BME280;53853;51.982;5.928;2022-08-03T09:12:45;101445.63;;;25.21;55.41
66945;BME280;53853;51.982;5.928;2022-08-03T09:15:17;101450.16;;;25.27;55.74
66945;BME280;53853;51.982;5.928;2022-08-03T09:17:47;101450.31;;;25.33;55.05
66945;BME280;53853;51.982;5.928;2022-08-03T09:20:20;101441.19;;;25.39;55.10
66945;BME280;53853;51.982;5.928;2022-08-03T09:22:54;101444.19;;;25.49;53.79
66945;BME280;53853;51.982;5.928;2022-08-03T09:25:29;101439.31;;;25.51;54.20
66945;BME280;53853;51.982;5.928;2022-08-03T09:28:07;101447.63;;;25.56;54.00
66945;BME280;53853;51.982;5.928;2022-08-03T09:30:40;101438.50;;;25.62;53.91
66945;BME280;53853;51.982;5.928;2022-08-03T09:33:11;101440.16;;;25.75;52.09
66945;BME280;53853;51.982;5.928;2022-08-03T09:35:46;101448.63;;;25.85;51.30
66945;BME280;53853;51.982;5.928;2022-08-03T09:38:18;101438.50;;;25.86;52.02
66945;BME280;53853;51.982;5.928;2022-08-03T09:40:50;101441.81;;;25.88;52.07
66945;BME280;53853;51.982;5.928;2022-08-03T09:43:20;101444.69;;;25.93;51.78
66945;BME280;53853;51.982;5.928;2022-08-03T09:46:02;101447.56;;;25.98;52.14
66945;BME280;53853;51.982;5.928;2022-08-03T09:48:33;101447.69;;;26.03;51.66
66945;BME280;53853;51.982;5.928;2022-08-03T09:51:06;101435.81;;;26.10;51.78
66945;BME280;53853;51.982;5.928;2022-08-03T09:53:42;101425.81;;;26.15;51.50
66945;BME280;53853;51.982;5.928;2022-08-03T09:56:13;101446.94;;;26.20;52.08
66945;BME280;53853;51.982;5.928;2022-08-03T09:58:45;101440.28;;;26.28;50.92
66945;BME280;53853;51.982;5.928;2022-08-03T10:01:17;101441.94;;;26.29;51.47
66945;BME280;53853;51.982;5.928;2022-08-03T10:03:57;101440.13;;;26.34;51.10
66945;BME280;53853;51.982;5.928;2022-08-03T10:06:30;101444.31;;;26.37;51.28
66945;BME280;53853;51.982;5.928;2022-08-03T10:09:08;101439.78;;;26.43;51.83
66945;BME280;53853;51.982;5.928;2022-08-03T10:11:40;101442.72;;;26.53;50.16
66945;BME280;53853;51.982;5.928;2022-08-03T10:14:12;101446.63;;;26.57;50.67
66945;BME280;53853;51.982;5.928;2022-08-03T10:16:45;101445.22;;;26.66;49.89
66945;BME280;53853;51.982;5.928;2022-08-03T10:19:15;101436.63;;;26.74;50.35
66945;BME280;53853;51.982;5.928;2022-08-03T10:21:54;101432.91;;;26.81;50.73
66945;BME280;53853;51.982;5.928;2022-08-03T10:24:25;101434.78;;;26.92;49.74
66945;BME280;53853;51.982;5.928;2022-08-03T10:27:00;101426.16;;;27.00;48.76
66945;BME280;53853;51.982;5.928;2022-08-03T10:29:36;101430.91;;;27.05;48.75
66945;BME280;53853;51.982;5.928;2022-08-03T10:32:09;101436.13;;;27.06;49.22
66945;BME280;53853;51.982;5.928;2022-08-03T10:34:43;101426.94;;;27.13;50.04
66945;BME280;53853;51.982;5.928;2022-08-03T10:37:17;101430.09;;;27.21;48.53
66945;BME280;53853;51.982;5.928;2022-08-03T10:39:48;101426.34;;;27.27;48.54
66945;BME280;53853;51.982;5.928;2022-08-03T10:42:23;101426.81;;;27.36;48.94
66945;BME280;53853;51.982;5.928;2022-08-03T10:45:03;101425.22;;;27.40;48.60
66945;BME280;53853;51.982;5.928;2022-08-03T10:47:35;101419.59;;;27.47;47.34
66945;BME280;53853;51.982;5.928;2022-08-03T10:50:06;101421.00;;;27.50;46.63
66945;BME280;53853;51.982;5.928;2022-08-03T10:52:53;101418.34;;;27.55;46.02
66945;BME280;53853;51.982;5.928;2022-08-03T10:55:31;101410.47;;;27.58;46.34
66945;BME280;53853;51.982;5.928;2022-08-03T10:58:13;101409.13;;;27.61;47.10
66945;BME280;53853;51.982;5.928;2022-08-03T11:00:48;101409.81;;;27.68;45.21
66945;BME280;53853;51.982;5.928;2022-08-03T11:03:19;101398.34;;;27.71;45.10
66945;BME280;53853;51.982;5.928;2022-08-03T11:05:49;101402.22;;;27.75;44.15
66945;BME280;53853;51.982;5.928;2022-08-03T11:08:27;101394.94;;;27.81;43.52
66945;BME280;53853;51.982;5.928;2022-08-03T11:11:00;101390.53;;;27.80;44.28
66945;BME280;53853;51.982;5.928;2022-08-03T11:13:31;101387.28;;;27.83;45.09
66945;BME280;53853;51.982;5.928;2022-08-03T11:16:17;101388.19;;;27.89;45.46
66945;BME280;53853;51.982;5.928;2022-08-03T11:18:56;101389.44;;;27.98;43.54
66945;BME280;53853;51.982;5.928;2022-08-03T11:21:54;101388.66;;;28.02;43.24
66945;BME280;53853;51.982;5.928;2022-08-03T11:27:28;101382.50;;;28.12;43.54
66945;BME280;53853;51.982;5.928;2022-08-03T11:30:00;101383.34;;;28.13;43.03
66945;BME280;53853;51.982;5.928;2022-08-03T11:32:58;101380.34;;;28.14;42.98
66945;BME280;53853;51.982;5.928;2022-08-03T11:35:30;101388.00;;;28.12;42.77
66945;BME280;53853;51.982;5.928;2022-08-03T11:38:09;101379.31;;;28.21;41.27
66945;BME280;53853;51.982;5.928;2022-08-03T11:40:41;101380.97;;;28.22;41.82
66945;BME280;53853;51.982;5.928;2022-08-03T11:46:16;101389.81;;;28.29;42.50
66945;BME280;53853;51.982;5.928;2022-08-03T11:48:49;101383.84;;;28.32;42.40
66945;BME280;53853;51.982;5.928;2022-08-03T11:51:20;101391.28;;;28.36;42.83
66945;BME280;53853;51.982;5.928;2022-08-03T11:53:54;101392.50;;;28.46;42.94
66945;BME280;53853;51.982;5.928;2022-08-03T11:56:24;101395.84;;;28.53;42.77
66945;BME280;53853;51.982;5.928;2022-08-03T11:58:56;101397.59;;;28.59;42.93
66945;BME280;53853;51.982;5.928;2022-08-03T12:01:28;101400.41;;;28.64;41.46
66945;BME280;53853;51.982;5.928;2022-08-03T12:04:02;101401.84;;;28.72;41.84
66945;BME280;53853;51.982;5.928;2022-08-03T12:06:33;101409.00;;;28.73;41.11
66945;BME280;53853;51.982;5.928;2022-08-03T12:09:20;101400.81;;;28.78;40.13
66945;BME280;53853;51.982;5.928;2022-08-03T12:11:50;101405.28;;;28.84;39.42
66945;BME280;53853;51.982;5.928;2022-08-03T12:14:20;101404.75;;;28.87;39.16
66945;BME280;53853;51.982;5.928;2022-08-03T12:16:53;101401.25;;;28.92;39.21
66945;BME280;53853;51.982;5.928;2022-08-03T12:19:23;101400.16;;;28.93;39.83
66945;BME280;53853;51.982;5.928;2022-08-03T12:21:53;101395.53;;;28.99;39.35
66945;BME280;53853;51.982;5.928;2022-08-03T12:24:23;101396.97;;;29.06;39.20
66945;BME280;53853;51.982;5.928;2022-08-03T12:26:55;101398.38;;;29.09;38.62
66945;BME280;53853;51.982;5.928;2022-08-03T12:29:25;101401.97;;;29.09;39.08
66945;BME280;53853;51.982;5.928;2022-08-03T12:31:57;101402.50;;;29.12;38.63
66945;BME280;53853;51.982;5.928;2022-08-03T12:34:45;101396.25;;;29.16;39.18
66945;BME280;53853;51.982;5.928;2022-08-03T12:37:18;101398.22;;;29.21;39.20
66945;BME280;53853;51.982;5.928;2022-08-03T12:39:53;101389.47;;;29.24;39.19
66945;BME280;53853;51.982;5.928;2022-08-03T12:42:29;101393.66;;;29.32;39.17
66945;BME280;53853;51.982;5.928;2022-08-03T12:44:59;101395.03;;;29.34;38.36
66945;BME280;53853;51.982;5.928;2022-08-03T12:47:49;101398.94;;;29.38;38.91
66945;BME280;53853;51.982;5.928;2022-08-03T12:50:28;101392.09;;;29.41;36.66
66945;BME280;53853;51.982;5.928;2022-08-03T12:52:59;101405.22;;;29.39;37.82
66945;BME280;53853;51.982;5.928;2022-08-03T12:55:30;101397.59;;;29.41;37.78
66945;BME280;53853;51.982;5.928;2022-08-03T12:58:05;101400.06;;;29.42;37.96
66945;BME280;53853;51.982;5.928;2022-08-03T13:00:37;101399.81;;;29.44;37.59
66945;BME280;53853;51.982;5.928;2022-08-03T13:03:09;101405.31;;;29.49;37.89
66945;BME280;53853;51.982;5.928;2022-08-03T13:05:43;101396.31;;;29.54;37.42
66945;BME280;53853;51.982;5.928;2022-08-03T13:08:19;101399.59;;;29.56;37.38
66945;BME280;53853;51.982;5.928;2022-08-03T13:10:51;101391.09;;;29.57;37.70
66945;BME280;53853;51.982;5.928;2022-08-03T13:13:36;101384.25;;;29.60;37.72
66945;BME280;53853;51.982;5.928;2022-08-03T13:16:06;101386.22;;;29.65;37.32
66945;BME280;53853;51.982;5.928;2022-08-03T13:18:39;101383.50;;;29.70;37.52
66945;BME280;53853;51.982;5.928;2022-08-03T13:21:08;101388.19;;;29.74;37.15
66945;BME280;53853;51.982;5.928;2022-08-03T13:23:38;101390.41;;;29.77;37.06
66945;BME280;53853;51.982;5.928;2022-08-03T13:26:08;101390.72;;;29.81;37.72
66945;BME280;53853;51.982;5.928;2022-08-03T13:28:38;101392.41;;;29.87;37.47